sensor_id;sensor_type;location;lat;lon;timestamp;P1;durP1;ratioP1;P2;durP2;ratioP2
6823;SDS011;58633;49.470;11.004;2024-03-08T00:01:30;22.13;;;12.00;;
6823;SDS011;58633;49.470;11.004;2024-03-08T00:03:55;21.70;;;12.33;;
6823;SDS011;58633;49.470;11.004;2024-03-08T00:06:21;23.10;;;12.20;;
6823;SDS011;58633;49.470;11.004;2024-03-08T00:08:50;21.50;;;11.47;;
6823;SDS011;58633;49.470;11.004;2024-03-08T00:11:16;20.93;;;12.07;;
6823;SDS011;58633;49.470;11.004;2024-03-08T00:13:41;19.90;;;11.10;;
6823;SDS011;58633;49.470;11.004;2024-03-08T00:16:07;20.17;;;11.67;;
6823;SDS011;58633;49.470;11.004;2024-03-08T00:18:34;20.73;;;11.70;;
6823;SDS011;58633;49.470;11.004;2024-03-08T00:21:00;24.00;;;13.07;;
6823;SDS011;58633;49.470;11.004;2024-03-08T00:23:25;21.37;;;11.73;;
6823;SDS011;58633;49.470;11.004;2024-03-08T00:25:51;24.53;;;11.77;;
6823;SDS011;58633;49.470;11.004;2024-03-08T00:28:16;20.20;;;11.53;;
6823;SDS011;58633;49.470;11.004;2024-03-08T00:30:43;20.50;;;11.73;;
6823;SDS011;58633;49.470;11.004;2024-03-08T00:33:10;20.23;;;11.30;;
6823;SDS011;58633;49.470;11.004;2024-03-08T00:35:35;23.00;;;11.77;;
6823;SDS011;58633;49.470;11.004;2024-03-08T00:38:01;20.53;;;11.50;;
6823;SDS011;58633;49.470;11.004;2024-03-08T00:40:27;21.07;;;12.40;;
6823;SDS011;58633;49.470;11.004;2024-03-08T00:42:53;20.57;;;11.67;;
6823;SDS011;58633;49.470;11.004;2024-03-08T00:45:19;23.93;;;12.80;;
6823;SDS011;58633;49.470;11.004;2024-03-08T00:47:45;21.30;;;11.40;;
6823;SDS011;58633;49.470;11.004;2024-03-08T00:50:10;23.77;;;12.20;;
6823;SDS011;58633;49.470;11.004;2024-03-08T00:52:36;21.53;;;12.13;;
6823;SDS011;58633;49.470;11.004;2024-03-08T00:55:02;22.47;;;11.77;;
6823;SDS011;58633;49.470;11.004;2024-03-08T00:57:28;20.97;;;11.60;;
6823;SDS011;58633;49.470;11.004;2024-03-08T00:59:54;23.80;;;12.23;;
6823;SDS011;58633;49.470;11.004;2024-03-08T01:02:21;23.37;;;12.00;;
6823;SDS011;58633;49.470;11.004;2024-03-08T01:04:48;21.83;;;11.43;;
6823;SDS011;58633;49.470;11.004;2024-03-08T01:07:13;23.50;;;12.13;;
6823;SDS011;58633;49.470;11.004;2024-03-08T01:09:39;22.73;;;12.40;;
6823;SDS011;58633;49.470;11.004;2024-03-08T01:12:05;22.27;;;12.70;;
6823;SDS011;58633;49.470;11.004;2024-03-08T01:14:32;23.63;;;12.70;;
6823;SDS011;58633;49.470;11.004;2024-03-08T01:16:58;22.13;;;12.10;;
6823;SDS011;58633;49.470;11.004;2024-03-08T01:19:24;22.03;;;12.43;;
6823;SDS011;58633;49.470;11.004;2024-03-08T01:21:49;22.87;;;12.93;;
6823;SDS011;58633;49.470;11.004;2024-03-08T01:24:15;23.57;;;12.17;;
6823;SDS011;58633;49.470;11.004;2024-03-08T01:26:40;24.00;;;12.20;;
6823;SDS011;58633;49.470;11.004;2024-03-08T01:29:06;20.30;;;11.73;;
6823;SDS011;58633;49.470;11.004;2024-03-08T01:31:33;23.80;;;12.77;;
6823;SDS011;58633;49.470;11.004;2024-03-08T01:33:58;21.73;;;11.93;;
6823;SDS011;58633;49.470;11.004;2024-03-08T01:36:27;23.20;;;12.77;;
6823;SDS011;58633;49.470;11.004;2024-03-08T01:38:53;22.97;;;12.23;;
6823;SDS011;58633;49.470;11.004;2024-03-08T01:41:18;25.27;;;12.97;;
6823;SDS011;58633;49.470;11.004;2024-03-08T01:43:44;24.73;;;12.97;;
6823;SDS011;58633;49.470;11.004;2024-03-08T01:46:17;19.83;;;11.77;;
6823;SDS011;58633;49.470;11.004;2024-03-08T01:48:46;23.00;;;12.57;;
6823;SDS011;58633;49.470;11.004;2024-03-08T01:51:12;24.40;;;13.17;;
6823;SDS011;58633;49.470;11.004;2024-03-08T01:53:39;22.87;;;12.00;;
6823;SDS011;58633;49.470;11.004;2024-03-08T01:56:07;20.37;;;12.33;;
6823;SDS011;58633;49.470;11.004;2024-03-08T01:58:33;27.13;;;13.17;;
6823;SDS011;58633;49.470;11.004;2024-03-08T02:01:00;25.87;;;13.60;;
6823;SDS011;58633;49.470;11.004;2024-03-08T02:03:28;23.73;;;12.90;;
6823;SDS011;58633;49.470;11.004;2024-03-08T02:05:56;24.13;;;13.33;;
6823;SDS011;58633;49.470;11.004;2024-03-08T02:08:23;24.27;;;13.33;;
6823;SDS011;58633;49.470;11.004;2024-03-08T02:10:49;23.20;;;12.57;;
6823;SDS011;58633;49.470;11.004;2024-03-08T02:13:15;23.30;;;13.07;;
6823;SDS011;58633;49.470;11.004;2024-03-08T02:18:19;24.07;;;13.03;;
6823;SDS011;58633;49.470;11.004;2024-03-08T02:20:46;22.30;;;12.80;;
6823;SDS011;58633;49.470;11.004;2024-03-08T02:23:13;24.23;;;13.00;;
6823;SDS011;58633;49.470;11.004;2024-03-08T02:25:39;21.93;;;13.23;;
6823;SDS011;58633;49.470;11.004;2024-03-08T02:28:06;22.73;;;12.73;;
6823;SDS011;58633;49.470;11.004;2024-03-08T02:30:36;25.30;;;13.30;;
6823;SDS011;58633;49.470;11.004;2024-03-08T02:33:02;24.20;;;13.03;;
6823;SDS011;58633;49.470;11.004;2024-03-08T02:35:27;22.47;;;12.43;;
6823;SDS011;58633;49.470;11.004;2024-03-08T02:37:53;25.50;;;12.80;;
6823;SDS011;58633;49.470;11.004;2024-03-08T02:40:18;23.57;;;13.60;;
6823;SDS011;58633;49.470;11.004;2024-03-08T02:42:44;23.93;;;12.97;;
6823;SDS011;58633;49.470;11.004;2024-03-08T02:45:09;26.20;;;13.40;;
6823;SDS011;58633;49.470;11.004;2024-03-08T02:47:35;21.97;;;12.67;;
6823;SDS011;58633;49.470;11.004;2024-03-08T02:50:01;22.00;;;12.93;;
6823;SDS011;58633;49.470;11.004;2024-03-08T02:52:27;23.53;;;12.67;;
6823;SDS011;58633;49.470;11.004;2024-03-08T02:54:52;26.80;;;13.50;;
6823;SDS011;58633;49.470;11.004;2024-03-08T02:57:18;24.13;;;12.87;;
6823;SDS011;58633;49.470;11.004;2024-03-08T02:59:44;25.33;;;13.23;;
6823;SDS011;58633;49.470;11.004;2024-03-08T03:02:10;24.63;;;13.87;;
6823;SDS011;58633;49.470;11.004;2024-03-08T03:04:36;23.97;;;12.60;;
6823;SDS011;58633;49.470;11.004;2024-03-08T03:07:05;25.97;;;12.90;;
6823;SDS011;58633;49.470;11.004;2024-03-08T03:09:30;27.90;;;14.10;;
6823;SDS011;58633;49.470;11.004;2024-03-08T03:11:57;22.40;;;13.30;;
6823;SDS011;58633;49.470;11.004;2024-03-08T03:14:23;25.43;;;13.53;;
6823;SDS011;58633;49.470;11.004;2024-03-08T03:16:51;25.37;;;14.03;;
6823;SDS011;58633;49.470;11.004;2024-03-08T03:19:17;25.00;;;13.30;;
6823;SDS011;58633;49.470;11.004;2024-03-08T03:21:43;23.47;;;13.60;;
6823;SDS011;58633;49.470;11.004;2024-03-08T03:24:09;23.87;;;13.03;;
6823;SDS011;58633;49.470;11.004;2024-03-08T03:26:36;25.57;;;14.13;;
6823;SDS011;58633;49.470;11.004;2024-03-08T03:29:04;26.77;;;14.27;;
6823;SDS011;58633;49.470;11.004;2024-03-08T03:31:33;24.60;;;14.20;;
6823;SDS011;58633;49.470;11.004;2024-03-08T03:33:59;23.20;;;13.03;;
6823;SDS011;58633;49.470;11.004;2024-03-08T03:36:29;22.10;;;12.63;;
6823;SDS011;58633;49.470;11.004;2024-03-08T03:38:55;26.30;;;13.87;;
6823;SDS011;58633;49.470;11.004;2024-03-08T03:41:38;22.37;;;13.03;;
6823;SDS011;58633;49.470;11.004;2024-03-08T03:44:04;24.17;;;13.03;;
6823;SDS011;58633;49.470;11.004;2024-03-08T03:46:33;23.50;;;13.03;;
6823;SDS011;58633;49.470;11.004;2024-03-08T03:48:59;24.13;;;12.57;;
6823;SDS011;58633;49.470;11.004;2024-03-08T03:51:25;23.13;;;12.90;;
6823;SDS011;58633;49.470;11.004;2024-03-08T03:53:51;27.73;;;13.33;;
6823;SDS011;58633;49.470;11.004;2024-03-08T03:56:18;22.83;;;12.87;;
6823;SDS011;58633;49.470;11.004;2024-03-08T03:58:44;25.50;;;13.10;;
6823;SDS011;58633;49.470;11.004;2024-03-08T04:01:09;24.10;;;12.37;;
6823;SDS011;58633;49.470;11.004;2024-03-08T04:03:35;25.10;;;13.77;;
6823;SDS011;58633;49.470;11.004;2024-03-08T04:06:01;23.10;;;12.60;;
6823;SDS011;58633;49.470;11.004;2024-03-08T04:08:29;24.17;;;12.43;;
6823;SDS011;58633;49.470;11.004;2024-03-08T04:10:55;21.80;;;12.93;;
6823;SDS011;58633;49.470;11.004;2024-03-08T04:13:20;23.10;;;13.00;;
6823;SDS011;58633;49.470;11.004;2024-03-08T04:15:46;23.90;;;13.13;;
6823;SDS011;58633;49.470;11.004;2024-03-08T04:18:13;22.00;;;12.67;;
6823;SDS011;58633;49.470;11.004;2024-03-08T04:20:39;24.07;;;12.70;;
6823;SDS011;58633;49.470;11.004;2024-03-08T04:23:05;25.97;;;13.23;;
6823;SDS011;58633;49.470;11.004;2024-03-08T04:25:31;24.20;;;13.60;;
6823;SDS011;58633;49.470;11.004;2024-03-08T04:27:56;24.30;;;12.70;;
6823;SDS011;58633;49.470;11.004;2024-03-08T04:30:25;22.93;;;13.23;;
6823;SDS011;58633;49.470;11.004;2024-03-08T04:32:53;25.10;;;13.17;;
6823;SDS011;58633;49.470;11.004;2024-03-08T04:35:19;23.40;;;13.27;;
6823;SDS011;58633;49.470;11.004;2024-03-08T04:37:45;27.70;;;13.37;;
6823;SDS011;58633;49.470;11.004;2024-03-08T04:40:11;25.33;;;13.27;;
6823;SDS011;58633;49.470;11.004;2024-03-08T04:42:36;24.17;;;12.83;;
6823;SDS011;58633;49.470;11.004;2024-03-08T04:45:04;23.97;;;12.97;;
6823;SDS011;58633;49.470;11.004;2024-03-08T04:47:30;25.20;;;12.73;;
6823;SDS011;58633;49.470;11.004;2024-03-08T04:49:56;23.43;;;12.50;;
6823;SDS011;58633;49.470;11.004;2024-03-08T04:52:22;26.03;;;13.70;;
6823;SDS011;58633;49.470;11.004;2024-03-08T04:54:47;27.87;;;14.20;;
6823;SDS011;58633;49.470;11.004;2024-03-08T04:57:13;27.23;;;14.70;;
6823;SDS011;58633;49.470;11.004;2024-03-08T04:59:38;26.10;;;14.27;;
6823;SDS011;58633;49.470;11.004;2024-03-08T05:02:04;24.53;;;14.10;;
6823;SDS011;58633;49.470;11.004;2024-03-08T05:04:32;25.63;;;13.23;;
6823;SDS011;58633;49.470;11.004;2024-03-08T05:06:57;24.90;;;13.50;;
6823;SDS011;58633;49.470;11.004;2024-03-08T05:09:26;25.90;;;14.23;;
6823;SDS011;58633;49.470;11.004;2024-03-08T05:11:56;25.23;;;13.87;;
6823;SDS011;58633;49.470;11.004;2024-03-08T05:14:25;26.17;;;13.33;;
6823;SDS011;58633;49.470;11.004;2024-03-08T05:16:51;23.63;;;13.37;;
6823;SDS011;58633;49.470;11.004;2024-03-08T05:19:17;27.53;;;13.80;;
6823;SDS011;58633;49.470;11.004;2024-03-08T05:21:43;25.20;;;13.53;;
6823;SDS011;58633;49.470;11.004;2024-03-08T05:24:09;26.67;;;13.87;;
6823;SDS011;58633;49.470;11.004;2024-03-08T05:26:35;28.27;;;14.53;;
6823;SDS011;58633;49.470;11.004;2024-03-08T05:29:05;27.93;;;15.13;;
6823;SDS011;58633;49.470;11.004;2024-03-08T05:31:36;25.50;;;14.40;;
6823;SDS011;58633;49.470;11.004;2024-03-08T05:34:10;27.67;;;14.20;;
6823;SDS011;58633;49.470;11.004;2024-03-08T05:36:39;26.10;;;14.97;;
6823;SDS011;58633;49.470;11.004;2024-03-08T05:39:05;25.60;;;14.50;;
6823;SDS011;58633;49.470;11.004;2024-03-08T05:41:31;26.60;;;15.10;;
6823;SDS011;58633;49.470;11.004;2024-03-08T05:43:57;26.20;;;14.87;;
6823;SDS011;58633;49.470;11.004;2024-03-08T05:46:22;26.43;;;14.17;;
6823;SDS011;58633;49.470;11.004;2024-03-08T05:48:48;23.97;;;13.37;;
6823;SDS011;58633;49.470;11.004;2024-03-08T05:51:14;26.37;;;14.20;;
6823;SDS011;58633;49.470;11.004;2024-03-08T05:53:39;25.63;;;14.53;;
6823;SDS011;58633;49.470;11.004;2024-03-08T05:56:05;28.37;;;14.37;;
6823;SDS011;58633;49.470;11.004;2024-03-08T05:58:30;23.93;;;13.43;;
6823;SDS011;58633;49.470;11.004;2024-03-08T06:00:56;28.20;;;14.53;;
6823;SDS011;58633;49.470;11.004;2024-03-08T06:03:22;28.33;;;14.57;;
6823;SDS011;58633;49.470;11.004;2024-03-08T06:05:48;27.30;;;15.50;;
6823;SDS011;58633;49.470;11.004;2024-03-08T06:08:14;28.13;;;15.00;;
6823;SDS011;58633;49.470;11.004;2024-03-08T06:10:40;28.70;;;15.27;;
6823;SDS011;58633;49.470;11.004;2024-03-08T06:13:06;30.73;;;15.83;;
6823;SDS011;58633;49.470;11.004;2024-03-08T06:15:31;28.87;;;15.33;;
6823;SDS011;58633;49.470;11.004;2024-03-08T06:17:57;26.73;;;14.53;;
6823;SDS011;58633;49.470;11.004;2024-03-08T06:20:23;27.87;;;15.03;;
6823;SDS011;58633;49.470;11.004;2024-03-08T06:22:51;29.20;;;15.10;;
6823;SDS011;58633;49.470;11.004;2024-03-08T06:25:17;28.77;;;15.50;;
6823;SDS011;58633;49.470;11.004;2024-03-08T06:27:43;30.73;;;16.37;;
6823;SDS011;58633;49.470;11.004;2024-03-08T06:30:09;30.57;;;16.30;;
6823;SDS011;58633;49.470;11.004;2024-03-08T06:32:38;28.83;;;15.80;;
6823;SDS011;58633;49.470;11.004;2024-03-08T06:35:04;28.33;;;14.73;;
6823;SDS011;58633;49.470;11.004;2024-03-08T06:37:34;27.97;;;14.93;;
6823;SDS011;58633;49.470;11.004;2024-03-08T06:40:00;28.60;;;15.80;;
6823;SDS011;58633;49.470;11.004;2024-03-08T06:42:26;32.27;;;15.63;;
6823;SDS011;58633;49.470;11.004;2024-03-08T06:44:53;28.90;;;15.63;;
6823;SDS011;58633;49.470;11.004;2024-03-08T06:47:21;43.33;;;16.20;;
6823;SDS011;58633;49.470;11.004;2024-03-08T06:49:47;33.70;;;16.27;;
6823;SDS011;58633;49.470;11.004;2024-03-08T06:52:14;28.87;;;15.67;;
6823;SDS011;58633;49.470;11.004;2024-03-08T06:54:40;31.97;;;16.90;;
6823;SDS011;58633;49.470;11.004;2024-03-08T06:57:05;32.57;;;16.13;;
6823;SDS011;58633;49.470;11.004;2024-03-08T06:59:31;31.73;;;15.60;;
6823;SDS011;58633;49.470;11.004;2024-03-08T07:01:57;29.67;;;16.23;;
6823;SDS011;58633;49.470;11.004;2024-03-08T07:04:24;41.93;;;16.83;;
6823;SDS011;58633;49.470;11.004;2024-03-08T07:06:53;31.20;;;16.10;;
6823;SDS011;58633;49.470;11.004;2024-03-08T07:09:19;31.20;;;15.93;;
6823;SDS011;58633;49.470;11.004;2024-03-08T07:11:45;38.60;;;16.93;;
6823;SDS011;58633;49.470;11.004;2024-03-08T07:14:11;38.93;;;15.67;;
6823;SDS011;58633;49.470;11.004;2024-03-08T07:16:40;30.43;;;15.87;;
6823;SDS011;58633;49.470;11.004;2024-03-08T07:19:09;28.40;;;15.13;;
6823;SDS011;58633;49.470;11.004;2024-03-08T07:21:35;30.73;;;16.40;;
6823;SDS011;58633;49.470;11.004;2024-03-08T07:24:01;31.23;;;16.17;;
6823;SDS011;58633;49.470;11.004;2024-03-08T07:26:27;32.73;;;16.60;;
6823;SDS011;58633;49.470;11.004;2024-03-08T07:28:53;30.70;;;16.10;;
6823;SDS011;58633;49.470;11.004;2024-03-08T07:31:22;30.23;;;16.83;;
6823;SDS011;58633;49.470;11.004;2024-03-08T07:33:50;28.93;;;16.10;;
6823;SDS011;58633;49.470;11.004;2024-03-08T07:36:16;31.27;;;16.40;;
6823;SDS011;58633;49.470;11.004;2024-03-08T07:38:41;33.80;;;16.33;;
6823;SDS011;58633;49.470;11.004;2024-03-08T07:41:07;30.60;;;17.13;;
6823;SDS011;58633;49.470;11.004;2024-03-08T07:43:33;30.47;;;16.80;;
6823;SDS011;58633;49.470;11.004;2024-03-08T07:46:02;33.03;;;16.30;;
6823;SDS011;58633;49.470;11.004;2024-03-08T07:48:28;32.10;;;16.47;;
6823;SDS011;58633;49.470;11.004;2024-03-08T07:50:53;28.37;;;14.93;;
6823;SDS011;58633;49.470;11.004;2024-03-08T07:53:19;35.03;;;15.57;;
6823;SDS011;58633;49.470;11.004;2024-03-08T07:55:44;30.57;;;15.57;;
6823;SDS011;58633;49.470;11.004;2024-03-08T07:58:10;29.37;;;14.97;;
6823;SDS011;58633;49.470;11.004;2024-03-08T08:00:36;30.33;;;15.77;;
6823;SDS011;58633;49.470;11.004;2024-03-08T08:03:02;28.40;;;14.70;;
6823;SDS011;58633;49.470;11.004;2024-03-08T08:05:29;29.43;;;14.90;;
6823;SDS011;58633;49.470;11.004;2024-03-08T08:08:00;33.27;;;15.70;;
6823;SDS011;58633;49.470;11.004;2024-03-08T08:10:28;29.80;;;15.37;;
6823;SDS011;58633;49.470;11.004;2024-03-08T08:12:53;32.63;;;16.47;;
6823;SDS011;58633;49.470;11.004;2024-03-08T08:15:19;30.10;;;15.07;;
6823;SDS011;58633;49.470;11.004;2024-03-08T08:17:45;28.33;;;15.13;;
6823;SDS011;58633;49.470;11.004;2024-03-08T08:20:11;27.80;;;15.73;;
6823;SDS011;58633;49.470;11.004;2024-03-08T08:22:40;25.67;;;14.83;;
6823;SDS011;58633;49.470;11.004;2024-03-08T08:25:07;33.43;;;15.93;;
6823;SDS011;58633;49.470;11.004;2024-03-08T08:27:33;27.00;;;14.30;;
6823;SDS011;58633;49.470;11.004;2024-03-08T08:29:58;27.70;;;15.03;;
6823;SDS011;58633;49.470;11.004;2024-03-08T08:32:24;28.43;;;14.60;;
6823;SDS011;58633;49.470;11.004;2024-03-08T08:34:50;26.23;;;14.70;;
6823;SDS011;58633;49.470;11.004;2024-03-08T08:37:15;31.50;;;15.37;;
6823;SDS011;58633;49.470;11.004;2024-03-08T08:39:41;26.83;;;14.87;;
6823;SDS011;58633;49.470;11.004;2024-03-08T08:42:07;31.70;;;15.53;;
6823;SDS011;58633;49.470;11.004;2024-03-08T08:44:34;27.70;;;14.63;;
6823;SDS011;58633;49.470;11.004;2024-03-08T08:47:00;24.53;;;14.10;;
6823;SDS011;58633;49.470;11.004;2024-03-08T08:49:26;24.90;;;13.90;;
6823;SDS011;58633;49.470;11.004;2024-03-08T08:51:52;24.27;;;13.80;;
6823;SDS011;58633;49.470;11.004;2024-03-08T08:54:18;27.80;;;14.40;;
6823;SDS011;58633;49.470;11.004;2024-03-08T08:56:45;24.53;;;14.40;;
6823;SDS011;58633;49.470;11.004;2024-03-08T08:59:12;27.93;;;13.87;;
6823;SDS011;58633;49.470;11.004;2024-03-08T09:01:44;24.10;;;12.50;;
6823;SDS011;58633;49.470;11.004;2024-03-08T09:04:12;23.67;;;12.80;;
6823;SDS011;58633;49.470;11.004;2024-03-08T09:06:37;23.47;;;13.40;;
6823;SDS011;58633;49.470;11.004;2024-03-08T09:09:06;25.33;;;11.67;;
6823;SDS011;58633;49.470;11.004;2024-03-08T09:11:34;19.87;;;11.23;;
6823;SDS011;58633;49.470;11.004;2024-03-08T09:13:59;20.07;;;11.10;;
6823;SDS011;58633;49.470;11.004;2024-03-08T09:16:27;19.67;;;11.87;;
6823;SDS011;58633;49.470;11.004;2024-03-08T09:18:52;22.13;;;11.67;;
6823;SDS011;58633;49.470;11.004;2024-03-08T09:21:17;19.50;;;10.60;;
6823;SDS011;58633;49.470;11.004;2024-03-08T09:23:43;23.37;;;12.00;;
6823;SDS011;58633;49.470;11.004;2024-03-08T09:26:09;20.60;;;11.43;;
6823;SDS011;58633;49.470;11.004;2024-03-08T09:28:37;21.13;;;11.20;;
6823;SDS011;58633;49.470;11.004;2024-03-08T09:31:03;21.10;;;10.97;;
6823;SDS011;58633;49.470;11.004;2024-03-08T09:33:30;18.70;;;10.40;;
6823;SDS011;58633;49.470;11.004;2024-03-08T09:35:56;21.80;;;10.43;;
6823;SDS011;58633;49.470;11.004;2024-03-08T09:38:24;21.50;;;10.90;;
6823;SDS011;58633;49.470;11.004;2024-03-08T09:40:50;18.73;;;10.23;;
6823;SDS011;58633;49.470;11.004;2024-03-08T09:43:16;19.43;;;9.93;;
6823;SDS011;58633;49.470;11.004;2024-03-08T09:45:43;18.00;;;10.53;;
6823;SDS011;58633;49.470;11.004;2024-03-08T09:48:11;17.80;;;9.83;;
6823;SDS011;58633;49.470;11.004;2024-03-08T09:50:38;16.33;;;9.87;;
6823;SDS011;58633;49.470;11.004;2024-03-08T09:53:04;17.57;;;9.83;;
6823;SDS011;58633;49.470;11.004;2024-03-08T09:55:33;20.10;;;10.20;;
6823;SDS011;58633;49.470;11.004;2024-03-08T09:58:06;18.90;;;9.73;;
6823;SDS011;58633;49.470;11.004;2024-03-08T10:00:45;19.20;;;8.87;;
6823;SDS011;58633;49.470;11.004;2024-03-08T10:03:10;19.13;;;9.30;;
6823;SDS011;58633;49.470;11.004;2024-03-08T10:05:36;15.70;;;9.03;;
6823;SDS011;58633;49.470;11.004;2024-03-08T10:08:01;18.90;;;9.83;;
6823;SDS011;58633;49.470;11.004;2024-03-08T10:10:27;19.53;;;10.23;;
6823;SDS011;58633;49.470;11.004;2024-03-08T10:12:53;17.73;;;9.13;;
6823;SDS011;58633;49.470;11.004;2024-03-08T10:15:20;16.27;;;9.63;;
6823;SDS011;58633;49.470;11.004;2024-03-08T10:17:46;17.50;;;9.83;;
6823;SDS011;58633;49.470;11.004;2024-03-08T10:20:17;16.93;;;9.23;;
6823;SDS011;58633;49.470;11.004;2024-03-08T10:22:44;15.53;;;9.47;;
6823;SDS011;58633;49.470;11.004;2024-03-08T10:25:13;16.17;;;9.07;;
6823;SDS011;58633;49.470;11.004;2024-03-08T10:27:39;17.50;;;9.03;;
6823;SDS011;58633;49.470;11.004;2024-03-08T10:30:06;19.43;;;9.27;;
6823;SDS011;58633;49.470;11.004;2024-03-08T10:32:39;14.80;;;9.10;;
6823;SDS011;58633;49.470;11.004;2024-03-08T10:35:06;15.77;;;9.63;;
6823;SDS011;58633;49.470;11.004;2024-03-08T10:37:33;17.67;;;9.13;;
6823;SDS011;58633;49.470;11.004;2024-03-08T10:40:18;23.07;;;9.23;;
6823;SDS011;58633;49.470;11.004;2024-03-08T10:42:51;18.87;;;9.00;;
6823;SDS011;58633;49.470;11.004;2024-03-08T10:45:19;19.57;;;9.23;;
6823;SDS011;58633;49.470;11.004;2024-03-08T10:47:58;16.40;;;9.83;;
6823;SDS011;58633;49.470;11.004;2024-03-08T10:50:43;14.40;;;8.63;;
6823;SDS011;58633;49.470;11.004;2024-03-08T10:53:15;18.67;;;10.47;;
6823;SDS011;58633;49.470;11.004;2024-03-08T10:55:42;14.90;;;8.73;;
6823;SDS011;58633;49.470;11.004;2024-03-08T10:58:10;15.90;;;9.20;;
6823;SDS011;58633;49.470;11.004;2024-03-08T11:00:35;14.10;;;8.13;;
6823;SDS011;58633;49.470;11.004;2024-03-08T11:03:02;14.55;;;7.78;;
6823;SDS011;58633;49.470;11.004;2024-03-08T11:08:00;14.18;;;7.65;;
6823;SDS011;58633;49.470;11.004;2024-03-08T11:10:46;13.95;;;7.88;;
6823;SDS011;58633;49.470;11.004;2024-03-08T11:13:36;15.35;;;7.88;;
6823;SDS011;58633;49.470;11.004;2024-03-08T11:16:07;17.40;;;8.50;;
6823;SDS011;58633;49.470;11.004;2024-03-08T11:18:34;15.65;;;8.10;;
6823;SDS011;58633;49.470;11.004;2024-03-08T11:21:19;13.30;;;7.93;;
6823;SDS011;58633;49.470;11.004;2024-03-08T11:23:58;14.35;;;7.63;;
6823;SDS011;58633;49.470;11.004;2024-03-08T11:26:24;10.00;;;7.22;;
6823;SDS011;58633;49.470;11.004;2024-03-08T11:28:50;11.77;;;6.95;;
6823;SDS011;58633;49.470;11.004;2024-03-08T11:33:46;19.50;;;7.15;;
6823;SDS011;58633;49.470;11.004;2024-03-08T11:36:14;11.60;;;7.50;;
6823;SDS011;58633;49.470;11.004;2024-03-08T11:38:49;29.80;;;8.45;;
6823;SDS011;58633;49.470;11.004;2024-03-08T11:41:18;12.30;;;6.78;;
6823;SDS011;58633;49.470;11.004;2024-03-08T11:43:48;27.88;;;7.47;;
6823;SDS011;58633;49.470;11.004;2024-03-08T11:46:15;11.10;;;6.45;;
6823;SDS011;58633;49.470;11.004;2024-03-08T11:48:42;12.82;;;6.38;;
6823;SDS011;58633;49.470;11.004;2024-03-08T11:51:12;10.02;;;6.90;;
6823;SDS011;58633;49.470;11.004;2024-03-08T11:53:40;27.33;;;7.57;;
6823;SDS011;58633;49.470;11.004;2024-03-08T11:56:10;10.48;;;6.57;;
6823;SDS011;58633;49.470;11.004;2024-03-08T11:58:37;10.23;;;6.55;;
6823;SDS011;58633;49.470;11.004;2024-03-08T12:01:03;9.68;;;6.70;;
6823;SDS011;58633;49.470;11.004;2024-03-08T12:03:30;10.32;;;6.10;;
6823;SDS011;58633;49.470;11.004;2024-03-08T12:05:58;11.13;;;6.40;;
6823;SDS011;58633;49.470;11.004;2024-03-08T12:08:25;11.38;;;6.25;;
6823;SDS011;58633;49.470;11.004;2024-03-08T12:10:53;9.63;;;6.32;;
6823;SDS011;58633;49.470;11.004;2024-03-08T12:13:24;14.20;;;6.32;;
6823;SDS011;58633;49.470;11.004;2024-03-08T12:15:55;10.35;;;7.13;;
6823;SDS011;58633;49.470;11.004;2024-03-08T12:18:23;10.35;;;6.20;;
6823;SDS011;58633;49.470;11.004;2024-03-08T12:20:51;9.25;;;6.18;;
6823;SDS011;58633;49.470;11.004;2024-03-08T12:23:17;11.63;;;5.82;;
6823;SDS011;58633;49.470;11.004;2024-03-08T12:25:42;11.20;;;6.00;;
6823;SDS011;58633;49.470;11.004;2024-03-08T12:28:09;9.05;;;5.93;;
6823;SDS011;58633;49.470;11.004;2024-03-08T12:30:43;8.82;;;6.38;;
6823;SDS011;58633;49.470;11.004;2024-03-08T12:33:15;11.32;;;6.55;;
6823;SDS011;58633;49.470;11.004;2024-03-08T12:35:41;9.25;;;5.95;;
6823;SDS011;58633;49.470;11.004;2024-03-08T12:38:18;10.77;;;6.43;;
6823;SDS011;58633;49.470;11.004;2024-03-08T12:40:49;11.00;;;6.35;;
6823;SDS011;58633;49.470;11.004;2024-03-08T12:43:14;10.82;;;6.72;;
6823;SDS011;58633;49.470;11.004;2024-03-08T12:45:40;12.25;;;6.88;;
6823;SDS011;58633;49.470;11.004;2024-03-08T12:48:12;8.23;;;6.13;;
6823;SDS011;58633;49.470;11.004;2024-03-08T12:50:40;10.70;;;6.05;;
6823;SDS011;58633;49.470;11.004;2024-03-08T12:53:08;12.52;;;7.10;;
6823;SDS011;58633;49.470;11.004;2024-03-08T12:55:33;9.20;;;6.07;;
6823;SDS011;58633;49.470;11.004;2024-03-08T12:58:01;9.38;;;5.85;;
6823;SDS011;58633;49.470;11.004;2024-03-08T13:00:27;9.27;;;5.93;;
6823;SDS011;58633;49.470;11.004;2024-03-08T13:02:53;13.63;;;7.65;;
6823;SDS011;58633;49.470;11.004;2024-03-08T13:05:19;10.48;;;6.47;;
6823;SDS011;58633;49.470;11.004;2024-03-08T13:07:45;11.52;;;6.10;;
6823;SDS011;58633;49.470;11.004;2024-03-08T13:10:14;9.20;;;6.28;;
6823;SDS011;58633;49.470;11.004;2024-03-08T13:12:44;8.93;;;5.88;;
6823;SDS011;58633;49.470;11.004;2024-03-08T13:15:09;8.10;;;6.05;;
6823;SDS011;58633;49.470;11.004;2024-03-08T13:17:45;9.70;;;5.72;;
6823;SDS011;58633;49.470;11.004;2024-03-08T13:20:14;9.95;;;6.07;;
6823;SDS011;58633;49.470;11.004;2024-03-08T13:22:45;9.43;;;5.40;;
6823;SDS011;58633;49.470;11.004;2024-03-08T13:25:12;8.88;;;5.93;;
6823;SDS011;58633;49.470;11.004;2024-03-08T13:27:39;7.13;;;5.70;;
6823;SDS011;58633;49.470;11.004;2024-03-08T13:30:06;9.77;;;6.10;;
6823;SDS011;58633;49.470;11.004;2024-03-08T13:32:32;8.93;;;5.45;;
6823;SDS011;58633;49.470;11.004;2024-03-08T13:34:57;9.15;;;5.93;;
6823;SDS011;58633;49.470;11.004;2024-03-08T13:37:23;9.00;;;6.00;;
6823;SDS011;58633;49.470;11.004;2024-03-08T13:39:48;7.78;;;5.70;;
6823;SDS011;58633;49.470;11.004;2024-03-08T13:42:14;8.60;;;5.15;;
6823;SDS011;58633;49.470;11.004;2024-03-08T13:44:48;7.65;;;6.03;;
6823;SDS011;58633;49.470;11.004;2024-03-08T13:47:18;8.85;;;5.95;;
6823;SDS011;58633;49.470;11.004;2024-03-08T13:49:44;10.90;;;5.50;;
6823;SDS011;58633;49.470;11.004;2024-03-08T13:52:10;8.43;;;6.13;;
6823;SDS011;58633;49.470;11.004;2024-03-08T13:54:37;10.77;;;6.55;;
6823;SDS011;58633;49.470;11.004;2024-03-08T13:57:03;9.88;;;6.70;;
6823;SDS011;58633;49.470;11.004;2024-03-08T13:59:30;9.43;;;6.55;;
6823;SDS011;58633;49.470;11.004;2024-03-08T14:01:57;35.63;;;8.25;;
6823;SDS011;58633;49.470;11.004;2024-03-08T14:04:24;22.42;;;8.50;;
6823;SDS011;58633;49.470;11.004;2024-03-08T14:06:51;15.75;;;8.82;;
6823;SDS011;58633;49.470;11.004;2024-03-08T14:09:21;13.48;;;7.43;;
6823;SDS011;58633;49.470;11.004;2024-03-08T14:11:49;9.65;;;7.68;;
6823;SDS011;58633;49.470;11.004;2024-03-08T14:14:18;13.18;;;7.72;;
6823;SDS011;58633;49.470;11.004;2024-03-08T14:16:46;10.07;;;7.28;;
6823;SDS011;58633;49.470;11.004;2024-03-08T14:19:13;11.38;;;7.57;;
6823;SDS011;58633;49.470;11.004;2024-03-08T14:21:40;13.25;;;7.55;;
6823;SDS011;58633;49.470;11.004;2024-03-08T14:24:12;10.75;;;7.63;;
6823;SDS011;58633;49.470;11.004;2024-03-08T14:26:44;10.10;;;7.47;;
6823;SDS011;58633;49.470;11.004;2024-03-08T14:29:10;11.95;;;7.88;;
6823;SDS011;58633;49.470;11.004;2024-03-08T14:31:36;10.05;;;7.07;;
6823;SDS011;58633;49.470;11.004;2024-03-08T14:34:02;10.85;;;6.85;;